Time;durP1;ratioP1;P1;durP2;ratioP2;P2;SDS_P1;SDS_P2;PMS_P1;PMS_P2;Temp;Humidity;BMP_temperature;BMP_pressure;BME280_temperature;BME280_humidity;BME280_pressure;Samples;Min_cycle;Max_cycle;Signal;HPM_P1;HPM_P2
2022/03/13 00:00:47;;;;;;;;;;;;;;;16.81;58.04;99571.78;2063357;28;19941;-57
2022/03/13 00:01:48;;;;;;;;;;;;;;;16.82;57.96;99570.75;2064269;28;19956;-56
2022/03/13 00:02:52;;;;;;;;;;;;;;;16.81;57.94;99574.47;2061253;28;19965;-51
2022/03/13 00:03:53;;;;;;;;;;;;;;;16.80;57.97;99576.31;2055228;28;20414;-59
2022/03/13 00:04:56;;;;;;;;;;;;;;;16.81;58.03;99571.78;2063839;28;19933;-59
2022/03/13 00:05:58;;;;;;;;;;;;;;;16.81;58.01;99577.97;2067254;28;19926;-58
2022/03/13 00:06:59;;;;;;;;;;;;;;;16.81;58.13;99572.63;2062631;28;19969;-56
2022/03/13 00:08:02;;;;;;;;;;;;;;;16.81;58.02;99577.16;2065126;28;19946;-57
2022/03/13 00:09:05;;;;;;;;;;;;;;;16.80;58.00;99575.44;2062588;28;19933;-57
2022/03/13 00:10:07;;;;;;;;;;;;;;;16.81;58.06;99575.28;2064362;28;20053;-55
2022/03/13 00:11:17;;;;;;;;;;;;;;;16.80;58.22;99576.31;2062883;28;19930;-55
2022/03/13 00:12:20;;;;;;;;;;;;;;;16.80;58.21;99573.63;2064106;28;20024;-58
2022/03/13 00:13:22;;;;;;;;;;;;;;;16.79;58.16;99574.63;2054385;28;20400;-56
2022/03/13 00:14:24;;;;;;;;;;;;;;;16.80;58.07;99579.00;2061519;28;19930;-57
2022/03/13 00:15:32;;;;;;;;;;;;;;;16.80;58.05;99575.44;2063905;28;19969;-55
2022/03/13 00:16:33;;;;;;;;;;;;;;;16.79;58.04;99573.78;2066029;28;19932;-56
2022/03/13 00:17:34;;;;;;;;;;;;;;;16.78;58.06;99575.63;2064035;28;20299;-55
2022/03/13 00:18:36;;;;;;;;;;;;;;;16.78;58.31;99572.97;2064166;28;20501;-53
2022/03/13 00:19:37;;;;;;;;;;;;;;;16.78;58.34;99580.16;2067929;28;19933;-56
2022/03/13 00:20:38;;;;;;;;;;;;;;;16.78;58.16;99572.97;2064343;28;19957;-51
2022/03/13 00:21:43;;;;;;;;;;;;;;;16.77;58.17;99576.66;2062868;28;19949;-59
2022/03/13 00:22:44;;;;;;;;;;;;;;;16.78;58.26;99577.47;2060156;28;20284;-52
2022/03/13 00:23:47;;;;;;;;;;;;;;;16.77;58.17;99575.78;2062841;28;19930;-54
2022/03/13 00:24:48;;;;;;;;;;;;;;;16.77;58.21;99575.78;2066623;28;19929;-57
2022/03/13 00:25:49;;;;;;;;;;;;;;;16.77;58.13;99573.13;2063396;28;20109;-53
2022/03/13 00:26:51;;;;;;;;;;;;;;;16.75;58.29;99576.78;2064694;28;20753;-56
2022/03/13 00:27:53;;;;;;;;;;;;;;;16.75;58.22;99582.13;2066999;28;19926;-56
2022/03/13 00:28:54;;;;;;;;;;;;;;;16.75;58.22;99584.81;2064863;28;20017;-58
2022/03/13 00:29:55;;;;;;;;;;;;;;;16.74;58.23;99575.13;2059753;28;19940;-60
2022/03/13 00:30:56;;;;;;;;;;;;;;;16.73;58.35;99576.09;2063890;28;19941;-55
2022/03/13 00:31:58;;;;;;;;;;;;;;;16.72;58.31;99569.06;2061836;28;20126;-56
2022/03/13 00:33:00;;;;;;;;;;;;;;;16.72;58.43;99569.06;2066569;28;19933;-56
2022/03/13 00:34:00;;;;;;;;;;;;;;;16.72;58.39;99566.41;2059853;28;19926;-57
2022/03/13 00:35:03;;;;;;;;;;;;;;;16.72;58.55;99568.25;2061798;28;20197;-58
2022/03/13 00:36:04;;;;;;;;;;;;;;;16.71;58.61;99566.56;2060902;28;19929;-55
2022/03/13 00:37:05;;;;;;;;;;;;;;;16.71;58.62;99571.91;2060204;28;19988;-56
2022/03/13 00:38:07;;;;;;;;;;;;;;;16.70;58.72;99565.72;2065718;28;20319;-56
2022/03/13 00:39:10;;;;;;;;;;;;;;;16.70;58.66;99563.03;2066007;28;19933;-57
2022/03/13 00:40:13;;;;;;;;;;;;;;;16.69;58.61;99571.25;2061866;28;19933;-56
2022/03/13 00:41:13;;;;;;;;;;;;;;;16.69;58.62;99569.41;2066214;28;20384;-57
2022/03/13 00:42:15;;;;;;;;;;;;;;;16.68;58.65;99567.72;2067262;28;19976;-57
2022/03/13 00:43:16;;;;;;;;;;;;;;;16.68;58.68;99570.41;2062321;28;19934;-56
2022/03/13 00:44:17;;;;;;;;;;;;;;;16.68;58.62;99569.56;2058689;28;19933;-59
2022/03/13 00:45:18;;;;;;;;;;;;;;;16.66;58.62;99567.06;2063397;28;19934;-57
2022/03/13 00:46:20;;;;;;;;;;;;;;;16.67;58.65;99554.53;2066376;28;20410;-57
2022/03/13 00:47:21;;;;;;;;;;;;;;;16.66;58.67;99564.41;2066066;28;20390;-57
2022/03/13 00:48:22;;;;;;;;;;;;;;;16.65;58.68;99561.88;2063772;28;19929;-57
2022/03/13 00:49:23;;;;;;;;;;;;;;;16.64;58.94;99561.03;2065333;28;20029;-56
2022/03/13 00:50:25;;;;;;;;;;;;;;;16.65;58.84;99556.53;2067001;28;20029;-57
2022/03/13 00:51:25;;;;;;;;;;;;;;;16.63;58.91;99563.88;2065139;28;20383;-56
2022/03/13 00:52:27;;;;;;;;;;;;;;;16.64;58.86;99554.84;2066243;28;19933;-56
2022/03/13 00:53:27;;;;;;;;;;;;;;;16.64;58.82;99552.19;2066209;28;19944;-57
2022/03/13 00:54:30;;;;;;;;;;;;;;;16.64;58.86;99554.84;2057670;28;19936;-57
2022/03/13 00:55:31;;;;;;;;;;;;;;;16.63;58.94;99555.84;2065430;28;20281;-58
2022/03/13 00:56:33;;;;;;;;;;;;;;;16.61;59.09;99556.03;2064110;28;20037;-57
2022/03/13 00:57:33;;;;;;;;;;;;;;;16.61;58.90;99547.16;2062024;28;19940;-57
2022/03/13 00:58:35;;;;;;;;;;;;;;;16.62;58.93;99546.16;2066381;28;19926;-57
2022/03/13 00:59:36;;;;;;;;;;;;;;;16.60;58.94;99550.81;2065759;28;19929;-54
2022/03/13 01:00:37;;;;;;;;;;;;;;;16.59;58.99;99552.66;2058017;28;20052;-56
2022/03/13 01:01:38;;;;;;;;;;;;;;;16.60;59.18;99553.50;2065228;28;19936;-56
2022/03/13 01:02:39;;;;;;;;;;;;;;;16.58;59.13;99551.00;2065706;28;19925;-57
2022/03/13 01:03:47;;;;;;;;;;;;;;;16.58;59.17;99553.69;2065251;28;19932;-56
2022/03/13 01:04:49;;;;;;;;;;;;;;;16.56;59.05;99553.00;2064726;28;19976;-56
2022/03/13 01:05:49;;;;;;;;;;;;;;;16.54;59.16;99549.66;2064464;28;19976;-56
2022/03/13 01:06:51;;;;;;;;;;;;;;;16.53;59.08;99551.50;2064657;28;19936;-58
2022/03/13 01:07:52;;;;;;;;;;;;;;;16.55;59.20;99548.66;2063464;28;19925;-54
2022/03/13 01:08:53;;;;;;;;;;;;;;;16.54;59.31;99545.13;2067368;28;20447;-57
2022/03/13 01:09:55;;;;;;;;;;;;;;;16.53;59.15;99551.50;2062868;28;19934;-57
2022/03/13 01:10:57;;;;;;;;;;;;;;;16.52;59.18;99552.53;2061698;28;19987;-55
2022/03/13 01:11:58;;;;;;;;;;;;;;;16.51;59.20;99550.81;2067169;28;19935;-57
2022/03/13 01:12:59;;;;;;;;;;;;;;;16.51;59.19;99550.00;2065969;28;19961;-54
2022/03/13 01:14:00;;;;;;;;;;;;;;;16.51;59.21;99550.00;2064177;28;19991;-56
2022/03/13 01:15:01;;;;;;;;;;;;;;;16.49;59.26;99554.66;2063317;28;19929;-57
2022/03/13 01:16:10;;;;;;;;;;;;;;;16.49;59.25;99552.84;2067457;28;20411;-55
2022/03/13 01:17:11;;;;;;;;;;;;;;;16.48;59.32;99544.97;2061824;28;19930;-57
2022/03/13 01:18:12;;;;;;;;;;;;;;;16.47;59.31;99546.00;2063594;28;19936;-56
2022/03/13 01:19:14;;;;;;;;;;;;;;;16.46;59.23;99547.81;2062903;28;19929;-55
2022/03/13 01:20:16;;;;;;;;;;;;;;;16.46;59.39;99553.16;2066631;28;20303;-55
2022/03/13 01:21:18;;;;;;;;;;;;;;;16.46;59.49;99546.97;2065257;28;21395;-57
2022/03/13 01:22:18;;;;;;;;;;;;;;;16.45;59.43;99543.47;2065769;28;20016;-58
2022/03/13 01:23:20;;;;;;;;;;;;;;;16.45;59.42;99550.66;2065464;28;19929;-56
2022/03/13 01:24:26;;;;;;;;;;;;;;;16.43;59.52;99542.78;2068333;28;20389;-56
2022/03/13 01:25:29;;;;;;;;;;;;;;;16.43;59.48;99550.00;2065567;28;20036;-56
2022/03/13 01:26:36;;;;;;;;;;;;;;;16.43;59.45;99550.00;2070397;28;20507;-56
2022/03/13 01:27:37;;;;;;;;;;;;;;;16.41;59.48;99547.50;2067182;28;20020;-58
2022/03/13 01:28:38;;;;;;;;;;;;;;;16.40;59.54;99548.47;2053369;28;19929;-58
2022/03/13 01:29:40;;;;;;;;;;;;;;;16.40;59.58;99544.97;2064662;28;20371;-56
2022/03/13 01:30:40;;;;;;;;;;;;;;;16.40;59.71;99544.97;2066322;28;19988;-56
2022/03/13 01:31:44;;;;;;;;;;;;;;;16.38;59.57;99553.19;2067896;28;19937;-56
2022/03/13 01:32:52;;;;;;;;;;;;;;;16.39;59.60;99551.34;2066399;28;19925;-57
2022/03/13 01:33:52;;;;;;;;;;;;;;;16.38;59.52;99549.66;2059262;28;19929;-58
2022/03/13 01:34:54;;;;;;;;;;;;;;;16.38;59.68;99549.66;2064851;28;19926;-53
2022/03/13 01:35:55;;;;;;;;;;;;;;;16.37;59.58;99548.81;2065029;28;19994;-56
2022/03/13 01:36:55;;;;;;;;;;;;;;;16.37;59.62;99550.66;2062030;28;19937;-54
2022/03/13 01:37:58;;;;;;;;;;;;;;;16.36;59.68;99549.84;2061931;28;20396;-57
2022/03/13 01:38:59;;;;;;;;;;;;;;;16.35;59.66;99540.09;2065575;28;19925;-55
2022/03/13 01:40:02;;;;;;;;;;;;;;;16.36;59.69;99551.69;2060402;28;20292;-55
2022/03/13 01:41:04;;;;;;;;;;;;;;;16.34;59.79;99551.84;2066056;28;20016;-54
2022/03/13 01:42:07;;;;;;;;;;;;;;;16.34;59.78;99542.97;2061250;28;19943;-56
2022/03/13 01:43:08;;;;;;;;;;;;;;;16.32;59.71;99548.47;2058423;28;19960;-61
2022/03/13 01:44:09;;;;;;;;;;;;;;;16.31;59.85;99536.09;2066305;28;20358;-57
2022/03/13 01:45:11;;;;;;;;;;;;;;;16.31;59.73;99549.50;2065145;28;19926;-58
2022/03/13 01:46:12;;;;;;;;;;;;;;;16.31;59.77;99546.81;2064070;28;19938;-58
2022/03/13 01:47:14;;;;;;;;;;;;;;;16.30;59.84;99540.63;2060571;28;19932;-57
2022/03/13 01:48:15;;;;;;;;;;;;;;;16.29;59.77;99541.63;2064513;28;20125;-56
2022/03/13 01:49:16;;;;;;;;;;;;;;;16.28;59.78;99545.31;2060567;28;20111;-58
2022/03/13 01:50:18;;;;;;;;;;;;;;;16.27;59.80;99543.66;2059152;28;21623;-58
2022/03/13 01:51:18;;;;;;;;;;;;;;;16.27;59.84;99537.47;2060899;28;20310;-59
2022/03/13 01:52:24;;;;;;;;;;;;;;;16.26;59.87;99536.59;2064503;28;19976;-57
2022/03/13 01:53:24;;;;;;;;;;;;;;;16.25;59.92;99534.09;2062597;28;19929;-57
2022/03/13 01:54:26;;;;;;;;;;;;;;;16.25;59.96;99534.09;2060711;28;20427;-58
2022/03/13 01:55:27;;;;;;;;;;;;;;;16.23;60.02;99531.56;2060780;28;22474;-56
2022/03/13 01:56:30;;;;;;;;;;;;;;;16.24;60.09;99532.41;2063728;28;20380;-57
2022/03/13 01:57:32;;;;;;;;;;;;;;;16.22;60.13;99532.59;2053038;28;20167;-59
2022/03/13 01:58:33;;;;;;;;;;;;;;;16.22;60.14;99534.44;2064519;28;20165;-55
2022/03/13 01:59:36;;;;;;;;;;;;;;;16.21;60.20;99530.06;2064408;28;19937;-56
2022/03/13 02:00:38;;;;;;;;;;;;;;;16.20;60.33;99529.25;2059912;28;19934;-57
2022/03/13 02:01:38;;;;;;;;;;;;;;;16.20;60.32;99531.91;2061113;28;19926;-59
2022/03/13 02:02:44;;;;;;;;;;;;;;;16.21;60.29;99528.22;2060938;28;19961;-58
2022/03/13 02:03:45;;;;;;;;;;;;;;;16.20;60.37;99531.09;2060813;28;20028;-56
2022/03/13 02:04:50;;;;;;;;;;;;;;;16.19;60.33;99532.09;2064539;28;19960;-58
2022/03/13 02:05:51;;;;;;;;;;;;;;;16.18;60.44;99525.88;2063837;28;19926;-56
2022/03/13 02:06:53;;;;;;;;;;;;;;;16.17;60.55;99529.56;2052669;28;20586;-57
2022/03/13 02:07:56;;;;;;;;;;;;;;;16.17;60.50;99524.22;2065775;28;19929;-56
2022/03/13 02:08:57;;;;;;;;;;;;;;;16.15;60.44;99531.56;2065237;28;19925;-57
2022/03/13 02:09:58;;;;;;;;;;;;;;;16.14;60.52;99519.19;2061291;28;19933;-57
2022/03/13 02:10:59;;;;;;;;;;;;;;;16.14;60.48;99519.19;2064904;28;19925;-57
2022/03/13 02:12:05;;;;;;;;;;;;;;;16.15;60.66;99520.88;2061991;28;19926;-59
2022/03/13 02:13:06;;;;;;;;;;;;;;;16.13;60.65;99525.56;2061894;28;19926;-57
2022/03/13 02:14:08;;;;;;;;;;;;;;;16.12;60.73;99518.53;2064395;28;19963;-56
2022/03/13 02:15:10;;;;;;;;;;;;;;;16.13;60.76;99522.03;2057025;28;20415;-57
2022/03/13 02:16:11;;;;;;;;;;;;;;;16.11;60.64;99522.22;2059589;28;19929;-55
2022/03/13 02:17:12;;;;;;;;;;;;;;;16.11;60.65;99522.22;2062897;28;20080;-58
2022/03/13 02:18:13;;;;;;;;;;;;;;;16.11;60.77;99518.69;2065781;28;20427;-58
2022/03/13 02:19:15;;;;;;;;;;;;;;;16.09;60.59;99529.56;2062740;28;20008;-53
2022/03/13 02:20:26;;;;;;;;;;;;;;;16.08;60.76;99528.72;2062031;28;20012;-56
2022/03/13 02:21:28;;;;;;;;;;;;;;;16.08;60.61;99525.22;2063974;28;19988;-57
2022/03/13 02:22:30;;;;;;;;;;;;;;;16.07;60.87;99527.06;2062472;28;20339;-56
2022/03/13 02:23:32;;;;;;;;;;;;;;;16.07;60.74;99523.53;2057430;28;20032;-58
2022/03/13 02:24:34;;;;;;;;;;;;;;;16.06;60.89;99529.91;2063015;28;19926;-58
2022/03/13 02:25:35;;;;;;;;;;;;;;;16.06;61.03;99529.91;2064441;28;20319;-57
2022/03/13 02:26:36;;;;;;;;;;;;;;;16.06;60.85;99532.56;2064733;28;19929;-58
2022/03/13 02:27:37;;;;;;;;;;;;;;;16.04;60.87;99524.69;2063267;28;19929;-56
2022/03/13 02:28:42;;;;;;;;;;;;;;;16.04;61.08;99531.88;2063175;28;19926;-56
2022/03/13 02:29:43;;;;;;;;;;;;;;;16.03;60.87;99525.72;2061993;28;19937;-58
2022/03/13 02:30:44;;;;;;;;;;;;;;;16.01;61.03;99527.69;2065319;28;20384;-57
2022/03/13 02:31:45;;;;;;;;;;;;;;;16.01;60.98;99524.19;2062298;28;19934;-57
2022/03/13 02:32:46;;;;;;;;;;;;;;;16.01;61.08;99522.34;2063133;28;19929;-58
2022/03/13 02:33:47;;;;;;;;;;;;;;;16.00;61.04;99528.72;2054207;28;19934;-57
2022/03/13 02:34:49;;;;;;;;;;;;;;;16.00;61.37;99530.56;2064531;28;20289;-56
2022/03/13 02:35:51;;;;;;;;;;;;;;;15.99;61.04;99519.03;2062874;28;19925;-58
2022/03/13 02:36:56;;;;;;;;;;;;;;;15.98;61.12;99522.69;2058197;28;19933;-58
2022/03/13 02:37:58;;;;;;;;;;;;;;;15.98;61.06;99521.84;2059286;28;19934;-58
2022/03/13 02:39:00;;;;;;;;;;;;;;;15.97;60.95;99521.03;2052531;28;20427;-57
2022/03/13 02:40:02;;;;;;;;;;;;;;;15.97;61.11;99517.50;2063655;28;19961;-56
2022/03/13 02:41:03;;;;;;;;;;;;;;;15.96;61.10;99519.31;2061191;28;19925;-56
2022/03/13 02:42:06;;;;;;;;;;;;;;;15.96;61.08;99522.00;2064050;28;20212;-57
2022/03/13 02:43:06;;;;;;;;;;;;;;;15.95;61.15;99522.19;2061019;28;19937;-57
2022/03/13 02:44:09;;;;;;;;;;;;;;;15.94;61.08;99521.34;2061448;28;19930;-63
2022/03/13 02:45:11;;;;;;;;;;;;;;;15.95;61.12;99516.84;2061204;28;19937;-53
2022/03/13 02:46:17;;;;;;;;;;;;;;;15.92;61.03;99518.00;2063169;28;19926;-57
2022/03/13 02:47:19;;;;;;;;;;;;;;;15.92;60.95;99514.50;2057236;28;20423;-57
2022/03/13 02:48:20;;;;;;;;;;;;;;;15.92;61.01;99515.31;2065337;28;20387;-56
2022/03/13 02:49:22;;;;;;;;;;;;;;;15.91;61.17;99516.34;2061926;28;19934;-58
2022/03/13 02:50:23;;;;;;;;;;;;;;;15.89;61.20;99515.66;2062128;28;19925;-58
2022/03/13 02:51:25;;;;;;;;;;;;;;;15.89;61.30;99510.31;2062826;28;19926;-58
2022/03/13 02:52:26;;;;;;;;;;;;;;;15.89;61.37;99506.78;2065712;28;20066;-57
2022/03/13 02:53:27;;;;;;;;;;;;;;;15.88;61.33;99505.97;2064324;28;21514;-57
2022/03/13 02:54:29;;;;;;;;;;;;;;;15.86;61.39;99505.28;2062568;28;20016;-55
2022/03/13 02:55:31;;;;;;;;;;;;;;;15.85;61.35;99500.91;2058423;28;19977;-56
2022/03/13 02:56:31;;;;;;;;;;;;;;;15.85;61.37;99507.13;2064495;28;20262;-57
2022/03/13 02:57:35;;;;;;;;;;;;;;;15.84;61.32;99499.25;2065069;28;19932;-58
2022/03/13 02:58:35;;;;;;;;;;;;;;;15.84;61.34;99500.09;2062959;28;19925;-56
2022/03/13 02:59:37;;;;;;;;;;;;;;;15.84;61.37;99509.97;2061353;28;19932;-57
2022/03/13 03:00:40;;;;;;;;;;;;;;;15.82;61.37;99499.44;2064696;28;19929;-56
2022/03/13 03:01:42;;;;;;;;;;;;;;;15.81;61.52;99504.94;2061689;28;19965;-56
2022/03/13 03:02:43;;;;;;;;;;;;;;;15.79;61.46;99505.09;2058489;28;19930;-57
2022/03/13 03:03:45;;;;;;;;;;;;;;;15.80;61.53;99497.94;2061547;28;19980;-57
2022/03/13 03:04:48;;;;;;;;;;;;;;;15.80;61.42;99505.94;2063739;28;20052;-56
2022/03/13 03:05:50;;;;;;;;;;;;;;;15.80;61.39;99503.28;2063698;28;19925;-56
2022/03/13 03:06:53;;;;;;;;;;;;;;;15.80;61.45;99497.94;2063256;28;19953;-56
2022/03/13 03:07:55;;;;;;;;;;;;;;;15.78;61.41;99495.41;2062641;28;20435;-57
2022/03/13 03:08:56;;;;;;;;;;;;;;;15.78;61.41;99497.25;2065459;28;19929;-56
2022/03/13 03:09:59;;;;;;;;;;;;;;;15.76;61.49;99497.41;2061372;28;21184;-57
2022/03/13 03:10:59;;;;;;;;;;;;;;;15.78;61.46;99503.44;2056011;28;19936;-56
2022/03/13 03:12:04;;;;;;;;;;;;;;;15.76;61.48;99502.75;2063635;28;20024;-57
2022/03/13 03:13:05;;;;;;;;;;;;;;;15.76;61.54;99497.41;2063375;28;19933;-58
2022/03/13 03:14:07;;;;;;;;;;;;;;;15.75;61.43;99501.09;2063213;28;19929;-58
2022/03/13 03:15:08;;;;;;;;;;;;;;;15.76;61.45;99501.91;2058957;28;19937;-58
2022/03/13 03:16:09;;;;;;;;;;;;;;;15.74;61.50;99501.22;2065746;28;19929;-57
2022/03/13 03:17:10;;;;;;;;;;;;;;;15.74;61.56;99498.56;2060805;28;20171;-58
2022/03/13 03:18:12;;;;;;;;;;;;;;;15.72;61.38;99498.72;2061617;28;19925;-57
2022/03/13 03:19:13;;;;;;;;;;;;;;;15.71;61.57;99499.75;2062457;28;19936;-57
2022/03/13 03:20:14;;;;;;;;;;;;;;;15.71;61.49;99497.06;2051857;28;20300;-56
2022/03/13 03:21:15;;;;;;;;;;;;;;;15.70;61.49;99503.41;2061742;28;19972;-58
2022/03/13 03:22:16;;;;;;;;;;;;;;;15.70;61.80;99502.56;2064132;28;20277;-57
2022/03/13 03:23:17;;;;;;;;;;;;;;;15.70;61.67;99503.41;2062568;28;20652;-57
2022/03/13 03:24:20;;;;;;;;;;;;;;;15.70;61.56;99500.72;2064913;28;19951;-57
2022/03/13 03:25:22;;;;;;;;;;;;;;;15.68;61.46;99492.03;2063582;28;19933;-57
2022/03/13 03:26:24;;;;;;;;;;;;;;;15.67;61.62;99501.03;2061167;28;19936;-55
2022/03/13 03:27:24;;;;;;;;;;;;;;;15.66;61.55;99496.69;2066893;28;19937;-57
2022/03/13 03:28:26;;;;;;;;;;;;;;;15.65;61.70;99501.19;2058953;28;20403;-56
2022/03/13 03:29:27;;;;;;;;;;;;;;;15.65;61.79;99497.66;2060385;28;20396;-57
2022/03/13 03:30:30;;;;;;;;;;;;;;;15.65;61.57;99501.19;2064134;28;19968;-54
2022/03/13 03:31:30;;;;;;;;;;;;;;;15.64;61.73;99498.69;2063455;28;20456;-57
2022/03/13 03:32:32;;;;;;;;;;;;;;;15.63;61.58;99495.19;2062498;28;19930;-56
2022/03/13 03:33:33;;;;;;;;;;;;;;;15.63;61.63;99495.19;2063749;28;19973;-54
2022/03/13 03:34:34;;;;;;;;;;;;;;;15.62;61.57;99493.47;2063990;28;20292;-58
2022/03/13 03:35:35;;;;;;;;;;;;;;;15.62;61.79;99496.16;2064074;28;19956;-56
2022/03/13 03:36:39;;;;;;;;;;;;;;;15.61;61.65;99491.81;2055394;28;20339;-57
2022/03/13 03:37:41;;;;;;;;;;;;;;;15.61;61.70;99493.66;2060116;28;19930;-57
2022/03/13 03:38:42;;;;;;;;;;;;;;;15.60;61.67;99487.47;2059076;28;19930;-55
2022/03/13 03:39:43;;;;;;;;;;;;;;;15.61;61.68;99491.00;2063562;28;19936;-55
2022/03/13 03:40:47;;;;;;;;;;;;;;;15.60;61.74;99486.63;2063207;28;20063;-56
2022/03/13 03:41:49;;;;;;;;;;;;;;;15.60;61.85;99491.97;2061608;28;19934;-55
2022/03/13 03:42:50;;;;;;;;;;;;;;;15.58;61.64;99485.97;2059483;28;20149;-58
2022/03/13 03:43:52;;;;;;;;;;;;;;;15.58;61.75;99491.31;2063492;28;19925;-54
2022/03/13 03:44:52;;;;;;;;;;;;;;;15.58;61.76;99488.66;2059839;28;19930;-54
2022/03/13 03:45:55;;;;;;;;;;;;;;;15.56;61.75;99490.63;2060934;28;19929;-57
2022/03/13 03:46:57;;;;;;;;;;;;;;;15.55;61.98;99489.81;2063350;28;20393;-54
2022/03/13 03:47:58;;;;;;;;;;;;;;;15.55;61.86;99491.66;2066437;28;20399;-56
2022/03/13 03:48:59;;;;;;;;;;;;;;;15.55;62.02;99480.94;2062354;28;19929;-57
2022/03/13 03:50:00;;;;;;;;;;;;;;;15.54;61.80;99489.94;2064620;28;19975;-58
2022/03/13 03:51:01;;;;;;;;;;;;;;;15.54;61.80;99489.94;2065691;28;19925;-58
2022/03/13 03:52:02;;;;;;;;;;;;;;;15.53;61.92;99485.63;2066153;28;20403;-54
2022/03/13 03:53:04;;;;;;;;;;;;;;;15.52;61.87;99495.47;2068397;28;19991;-59
2022/03/13 03:54:05;;;;;;;;;;;;;;;15.51;62.03;99492.97;2060414;28;20287;-60
2022/03/13 03:55:07;;;;;;;;;;;;;;;15.51;61.88;99487.59;2065357;28;19935;-59
2022/03/13 03:56:09;;;;;;;;;;;;;;;15.50;61.89;99486.78;2066751;28;19954;-56
2022/03/13 03:57:11;;;;;;;;;;;;;;;15.50;61.93;99491.28;2065783;28;20479;-59
2022/03/13 03:58:12;;;;;;;;;;;;;;;15.49;61.88;99490.47;2065405;28;19925;-57
2022/03/13 03:59:14;;;;;;;;;;;;;;;15.49;61.98;99494.94;2064833;28;19926;-59
2022/03/13 04:00:15;;;;;;;;;;;;;;;15.48;62.11;99490.63;2066973;28;20616;-55
2022/03/13 04:01:17;;;;;;;;;;;;;;;15.47;61.97;99491.63;2065419;28;19930;-59
2022/03/13 04:02:17;;;;;;;;;;;;;;;15.47;62.09;99495.13;2058826;28;19934;-55
2022/03/13 04:03:19;;;;;;;;;;;;;;;15.46;62.22;99490.78;2068812;28;20013;-57
2022/03/13 04:04:19;;;;;;;;;;;;;;;15.46;62.19;99489.94;2058521;28;20752;-56
2022/03/13 04:05:21;;;;;;;;;;;;;;;15.45;62.16;99482.91;2066873;28;19977;-56
2022/03/13 04:06:21;;;;;;;;;;;;;;;15.45;62.03;99488.25;2068959;28;20020;-57
2022/03/13 04:07:23;;;;;;;;;;;;;;;15.44;62.13;99486.59;2063680;28;19948;-58
2022/03/13 04:08:23;;;;;;;;;;;;;;;15.42;62.26;99484.91;2064885;28;19926;-57
2022/03/13 04:09:25;;;;;;;;;;;;;;;15.43;62.24;99485.75;2063115;28;19930;-58
2022/03/13 04:10:25;;;;;;;;;;;;;;;15.42;62.40;99484.91;2063421;28;20412;-56
2022/03/13 04:11:28;;;;;;;;;;;;;;;15.42;62.15;99486.75;2065714;28;19929;-58
2022/03/13 04:12:30;;;;;;;;;;;;;;;15.40;62.25;99484.22;2062204;28;19932;-56
2022/03/13 04:13:33;;;;;;;;;;;;;;;15.40;62.42;99486.06;2063921;28;19929;-59
2022/03/13 04:14:34;;;;;;;;;;;;;;;15.41;62.37;99480.56;2063603;28;20216;-55
2022/03/13 04:15:37;;;;;;;;;;;;;;;15.39;62.28;99482.56;2067852;28;19963;-58
2022/03/13 04:16:37;;;;;;;;;;;;;;;15.38;62.31;99483.56;2064251;28;19933;-58
2022/03/13 04:17:39;;;;;;;;;;;;;;;15.39;62.21;99492.41;2068382;28;19930;-58
2022/03/13 04:18:39;;;;;;;;;;;;;;;15.38;62.44;99488.91;2067559;28;20024;-55
2022/03/13 04:19:41;;;;;;;;;;;;;;;15.39;62.25;99489.75;2064714;28;19937;-56
2022/03/13 04:20:42;;;;;;;;;;;;;;;15.36;62.35;99480.22;2065688;28;20020;-56
2022/03/13 04:21:44;;;;;;;;;;;;;;;15.36;62.27;99480.22;2063289;28;19984;-59
2022/03/13 04:22:44;;;;;;;;;;;;;;;15.37;62.18;99479.22;2060778;28;19926;-56
2022/03/13 04:23:46;;;;;;;;;;;;;;;15.36;62.46;99477.53;2065138;28;20441;-58
2022/03/13 04:24:47;;;;;;;;;;;;;;;15.36;62.60;99482.88;2064239;28;19929;-58
2022/03/13 04:25:48;;;;;;;;;;;;;;;15.36;62.62;99479.38;2064645;28;19988;-58
2022/03/13 04:26:51;;;;;;;;;;;;;;;15.35;62.62;99481.22;2063613;28;20020;-58
2022/03/13 04:27:52;;;;;;;;;;;;;;;15.36;62.60;99479.38;2066308;28;20453;-58
2022/03/13 04:28:53;;;;;;;;;;;;;;;15.36;62.71;99480.22;2066504;28;19937;-60
2022/03/13 04:29:54;;;;;;;;;;;;;;;15.37;62.62;99478.38;2067000;28;20081;-54
2022/03/13 04:30:56;;;;;;;;;;;;;;;15.37;62.92;99479.22;2062139;28;20391;-57
2022/03/13 04:31:58;;;;;;;;;;;;;;;15.37;62.91;99481.88;2065334;28;19933;-59
2022/03/13 04:33:00;;;;;;;;;;;;;;;15.37;62.80;99478.38;2064347;28;19929;-57
2022/03/13 04:34:02;;;;;;;;;;;;;;;15.36;62.92;99480.22;2064619;28;20035;-54
2022/03/13 04:35:03;;;;;;;;;;;;;;;15.37;62.88;99483.72;2064589;28;19960;-55
2022/03/13 04:36:06;;;;;;;;;;;;;;;15.38;62.92;99485.41;2067502;28;19930;-57
2022/03/13 04:37:08;;;;;;;;;;;;;;;15.36;62.77;99484.72;2057667;28;19929;-57
2022/03/13 04:38:08;;;;;;;;;;;;;;;15.37;62.96;99481.88;2068058;28;19933;-52
2022/03/13 04:39:10;;;;;;;;;;;;;;;15.37;62.76;99481.03;2067159;28;19929;-57
2022/03/13 04:40:11;;;;;;;;;;;;;;;15.36;62.88;99482.88;2065433;28;19993;-57
2022/03/13 04:41:13;;;;;;;;;;;;;;;15.35;62.83;99483.91;2064836;28;20238;-58
2022/03/13 04:42:16;;;;;;;;;;;;;;;15.36;62.87;99485.56;2065707;28;19925;-55
2022/03/13 04:43:16;;;;;;;;;;;;;;;15.35;62.84;99486.56;2064859;28;19929;-57
2022/03/13 04:44:19;;;;;;;;;;;;;;;15.35;63.00;99489.25;2069009;28;20200;-57
2022/03/13 04:45:19;;;;;;;;;;;;;;;15.36;63.02;99490.06;2068368;28;20360;-58
2022/03/13 04:46:21;;;;;;;;;;;;;;;15.36;62.91;99490.06;2061242;28;20527;-59
2022/03/13 04:47:22;;;;;;;;;;;;;;;15.35;62.98;99489.25;2064020;28;19926;-60
2022/03/13 04:48:23;;;;;;;;;;;;;;;15.35;62.91;99489.25;2066921;28;20343;-54
2022/03/13 04:49:24;;;;;;;;;;;;;;;15.35;62.87;99497.25;2066135;28;19929;-57
2022/03/13 04:50:25;;;;;;;;;;;;;;;15.35;62.97;99489.25;2064581;28;19997;-55
2022/03/13 04:51:26;;;;;;;;;;;;;;;15.35;62.98;99491.91;2065879;28;20392;-57
2022/03/13 04:52:28;;;;;;;;;;;;;;;15.35;62.89;99491.91;2067037;28;19944;-56
2022/03/13 04:53:29;;;;;;;;;;;;;;;15.35;62.88;99493.72;2064746;28;20465;-56
2022/03/13 04:54:30;;;;;;;;;;;;;;;15.35;62.89;99491.91;2067038;28;20272;-56
2022/03/13 04:55:31;;;;;;;;;;;;;;;15.34;62.95;99490.22;2064105;28;20399;-60
2022/03/13 04:56:33;;;;;;;;;;;;;;;15.33;62.99;99485.88;2065784;28;19926;-58
2022/03/13 04:57:35;;;;;;;;;;;;;;;15.34;62.96;99490.22;2067865;28;19930;-58
2022/03/13 04:58:36;;;;;;;;;;;;;;;15.34;62.98;99492.06;2066823;28;19968;-57
2022/03/13 04:59:37;;;;;;;;;;;;;;;15.33;62.97;99496.56;2063106;28;20466;-58
2022/03/13 05:00:38;;;;;;;;;;;;;;;15.34;62.96;99486.72;2063832;28;19983;-56
2022/03/13 05:01:39;;;;;;;;;;;;;;;15.33;62.99;99491.22;2064649;28;20398;-58
2022/03/13 05:02:41;;;;;;;;;;;;;;;15.33;63.10;99493.91;2059945;28;19930;-58
2022/03/13 05:03:42;;;;;;;;;;;;;;;15.33;62.93;99495.75;2059629;28;19934;-57
2022/03/13 05:04:43;;;;;;;;;;;;;;;15.32;62.96;99494.06;2064911;28;19944;-58
2022/03/13 05:05:44;;;;;;;;;;;;;;;15.32;63.19;99494.06;2063481;28;20348;-59
2022/03/13 05:06:45;;;;;;;;;;;;;;;15.32;63.35;99494.06;2063834;28;19925;-58
2022/03/13 05:07:46;;;;;;;;;;;;;;;15.34;63.47;99500.91;2062304;28;19935;-57
2022/03/13 05:08:49;;;;;;;;;;;;;;;15.34;63.48;99495.56;2064078;28;19929;-53
2022/03/13 05:09:49;;;;;;;;;;;;;;;15.35;63.61;99489.25;2062099;28;19926;-54
2022/03/13 05:10:51;;;;;;;;;;;;;;;15.37;63.72;99492.56;2064130;28;19965;-58
2022/03/13 05:11:53;;;;;;;;;;;;;;;15.39;63.77;99509.28;2063494;28;20180;-54
2022/03/13 05:12:57;;;;;;;;;;;;;;;15.41;63.74;99499.28;2056095;28;20402;-54
2022/03/13 05:13:57;;;;;;;;;;;;;;;15.44;63.89;99497.28;2065969;28;20222;-52
2022/03/13 05:14:59;;;;;;;;;;;;;;;15.49;63.64;99497.63;2064246;28;19929;-55
2022/03/13 05:16:00;;;;;;;;;;;;;;;15.53;63.65;99496.31;2062428;28;19975;-56
2022/03/13 05:17:02;;;;;;;;;;;;;;;15.57;63.57;99492.31;2063405;28;19925;-58
2022/03/13 05:18:03;;;;;;;;;;;;;;;15.63;63.59;99497.84;2064604;28;19946;-52
2022/03/13 05:19:06;;;;;;;;;;;;;;;15.64;63.59;99496.84;2065229;28;20129;-56
2022/03/13 05:20:08;;;;;;;;;;;;;;;15.70;63.54;99498.06;2064812;28;19968;-56
2022/03/13 05:21:09;;;;;;;;;;;;;;;15.74;63.39;99496.75;2055669;28;19937;-59
2022/03/13 05:22:10;;;;;;;;;;;;;;;15.78;63.06;99492.72;2067261;28;20470;-53